Weather at Sultanpur

Public forecast

Using degrees Celsius for public forecast. Weather courtesy of forecast.io.

Closest aviation weather report (METAR) to Sultanpur

Report is more than 6 hours old.

Closest report is Allahabad Airport, 51.3 nm (94.9 km) SSW. Retrieved 2018/12/03 04:30 UTC (2 years ago):

VIAL 030430Z VRB02KT 2300 HZ SCT250 21/10 Q1017 BECMG 3000 HZ

Closest aviation forecast (TAF) to Sultanpur

Forecast is more than 12 hours old.

Closest forecast is Allahabad Airport, 51.3 nm (94.9 km) SSW. Retrieved 2013/07/26 06:00 UTC (7 years ago):

TAF VIAL 260300Z 2606/2615 VRB02KT 3000 HZ/BR SCT015 BKN025 OVC080 BECMG 2606/2608 09004KT 4500 HZ TEMPO 2607/2612 0800 TSRA/SHRA FEW040CB OVC070